QFA171 YMML-NZWN
Flight info
| Callsign | QFA171 |
|---|---|
| Flight time | 3h 16m |
| Altitude | 33000 |
| Route | CORRS Y66 GIVID M625 TOMAR/N0466F350 M625 GOPLU |
| Aircraft | B738/M-SDE2E3FGHIRWXY/LB1 |
Departure
| Time | 2026-05-08 04:11 |
|---|---|
| Airport | Melbourne Airport (YMML) |
Arrival
| Time | 2026-05-08 07:28 |
|---|---|
| Airport | Wellington International Airport (NZWN) |
| Time | Latitude | Longitude | Altitude | Speed | Heading |
|---|---|---|---|---|---|
| 2026-05-08 03:27 | -37.66756 | 144.84543 | 394 ft | 0 kts | 172° |
| 2026-05-08 03:51 | -37.66752 | 144.84543 | 396 ft | 3 kts | 172° |
| 2026-05-08 03:51 | -37.66734 | 144.84539 | 393 ft | 3 kts | 172° |
| 2026-05-08 03:51 | -37.66716 | 144.84536 | 395 ft | 3 kts | 172° |
| 2026-05-08 03:51 | -37.66698 | 144.84533 | 395 ft | 3 kts | 172° |
| 2026-05-08 03:52 | -37.66681 | 144.84530 | 396 ft | 3 kts | 172° |
| 2026-05-08 03:52 | -37.66664 | 144.84527 | 395 ft | 0 kts | 172° |
| 2026-05-08 03:55 | -37.66669 | 144.84527 | 394 ft | 0 kts | 185° |
| 2026-05-08 03:55 | -37.66671 | 144.84525 | 395 ft | 0 kts | 203° |
| 2026-05-08 03:55 | -37.66672 | 144.84521 | 396 ft | 1 kts | 236° |
| 2026-05-08 03:55 | -37.66671 | 144.84491 | 398 ft | 7 kts | 271° |
| 2026-05-08 03:56 | -37.66680 | 144.84399 | 395 ft | 12 kts | 261° |
| 2026-05-08 03:56 | -37.66692 | 144.84289 | 394 ft | 12 kts | 261° |
| 2026-05-08 03:56 | -37.66703 | 144.84191 | 395 ft | 10 kts | 261° |
| 2026-05-08 03:56 | -37.66714 | 144.84103 | 394 ft | 10 kts | 261° |
| 2026-05-08 03:57 | -37.66719 | 144.84022 | 390 ft | 8 kts | 283° |
| 2026-05-08 03:57 | -37.66694 | 144.83981 | 392 ft | 4 kts | 317° |
| 2026-05-08 03:57 | -37.66658 | 144.83960 | 391 ft | 9 kts | 346° |
| 2026-05-08 03:57 | -37.66586 | 144.83945 | 400 ft | 9 kts | 353° |
| 2026-05-08 03:58 | -37.66537 | 144.83937 | 402 ft | 5 kts | 348° |
| 2026-05-08 03:58 | -37.66516 | 144.83932 | 403 ft | 1 kts | 348° |
| 2026-05-08 03:58 | -37.66512 | 144.83931 | 403 ft | 1 kts | 349° |
| 2026-05-08 03:58 | -37.66477 | 144.83924 | 403 ft | 7 kts | 351° |
| 2026-05-08 03:59 | -37.66445 | 144.83918 | 406 ft | 4 kts | 351° |
| 2026-05-08 03:59 | -37.66404 | 144.83913 | 407 ft | 11 kts | 1° |
| 2026-05-08 03:59 | -37.66345 | 144.83992 | 409 ft | 13 kts | 85° |
| 2026-05-08 03:59 | -37.66324 | 144.84088 | 408 ft | 11 kts | 34° |
| 2026-05-08 04:00 | -37.66280 | 144.84095 | 411 ft | 0 kts | 355° |
| 2026-05-08 04:00 | -37.66276 | 144.84095 | 409 ft | 4 kts | 354° |
| 2026-05-08 04:00 | -37.66198 | 144.84082 | 411 ft | 19 kts | 352° |
| 2026-05-08 04:01 | -37.66043 | 144.84053 | 413 ft | 23 kts | 352° |
| 2026-05-08 04:01 | -37.65889 | 144.84023 | 413 ft | 21 kts | 351° |
| 2026-05-08 04:01 | -37.65747 | 144.83998 | 416 ft | 20 kts | 352° |
| 2026-05-08 04:01 | -37.65611 | 144.83975 | 417 ft | 19 kts | 353° |
| 2026-05-08 04:02 | -37.65490 | 144.83943 | 422 ft | 16 kts | 347° |
| 2026-05-08 04:02 | -37.65392 | 144.83917 | 423 ft | 13 kts | 348° |
| 2026-05-08 04:02 | -37.65328 | 144.83872 | 423 ft | 8 kts | 313° |
| 2026-05-08 04:02 | -37.65305 | 144.83823 | 428 ft | 5 kts | 291° |
| 2026-05-08 04:03 | -37.65300 | 144.83798 | 423 ft | 2 kts | 279° |
| 2026-05-08 04:03 | -37.65303 | 144.83725 | 434 ft | 2 kts | 262° |
| 2026-05-08 04:03 | -37.65306 | 144.83703 | 435 ft | 3 kts | 262° |
| 2026-05-08 04:04 | -37.65315 | 144.83624 | 437 ft | 11 kts | 261° |
| 2026-05-08 04:04 | -37.65340 | 144.83542 | 430 ft | 9 kts | 246° |
| 2026-05-08 04:04 | -37.65384 | 144.83507 | 431 ft | 8 kts | 183° |
| 2026-05-08 04:04 | -37.65406 | 144.83509 | 426 ft | 0 kts | 173° |
| 2026-05-08 04:10 | -37.65408 | 144.83509 | 436 ft | 4 kts | 173° |
| 2026-05-08 04:10 | -37.65614 | 144.83547 | 423 ft | 58 kts | 171° |
| 2026-05-08 04:10 | -37.66462 | 144.83706 | 405 ft | 125 kts | 172° |
| 2026-05-08 04:11 | -37.67450 | 144.83880 | 522 ft | 154 kts | 173° |
| 2026-05-08 04:11 | -37.68174 | 144.84024 | 874 ft | 157 kts | 175° |
| 2026-05-08 04:11 | -37.69285 | 144.84234 | 1407 ft | 164 kts | 177° |
| 2026-05-08 04:11 | -37.70463 | 144.84447 | 1873 ft | 178 kts | 177° |
| 2026-05-08 04:12 | -37.71739 | 144.84677 | 2320 ft | 193 kts | 178° |
| 2026-05-08 04:12 | -37.73124 | 144.84929 | 2773 ft | 209 kts | 177° |
| 2026-05-08 04:12 | -37.74600 | 144.85202 | 3321 ft | 217 kts | 176° |
| 2026-05-08 04:12 | -37.76109 | 144.85488 | 4052 ft | 222 kts | 176° |
| 2026-05-08 04:13 | -37.77682 | 144.85785 | 4796 ft | 230 kts | 177° |
| 2026-05-08 04:13 | -37.79247 | 144.86079 | 5619 ft | 234 kts | 175° |
| 2026-05-08 04:13 | -37.80887 | 144.86385 | 6343 ft | 242 kts | 175° |
| 2026-05-08 04:13 | -37.82519 | 144.87038 | 7071 ft | 253 kts | 155° |
| 2026-05-08 04:14 | -37.83876 | 144.88516 | 7842 ft | 266 kts | 132° |
| 2026-05-08 04:14 | -37.84630 | 144.90710 | 8642 ft | 280 kts | 109° |
| 2026-05-08 04:14 | -37.84974 | 144.93167 | 9399 ft | 287 kts | 105° |
| 2026-05-08 04:14 | -37.85230 | 144.95689 | 10174 ft | 291 kts | 104° |
| 2026-05-08 04:15 | -37.85475 | 144.98240 | 10851 ft | 294 kts | 104° |
| 2026-05-08 04:15 | -37.85748 | 145.00818 | 11505 ft | 297 kts | 105° |
| 2026-05-08 04:15 | -37.86047 | 145.03393 | 12113 ft | 302 kts | 106° |
| 2026-05-08 04:15 | -37.86361 | 145.06037 | 12757 ft | 306 kts | 105° |
| 2026-05-08 04:16 | -37.86675 | 145.08719 | 13422 ft | 310 kts | 105° |
| 2026-05-08 04:16 | -37.86986 | 145.11443 | 14060 ft | 315 kts | 105° |
| 2026-05-08 04:16 | -37.87298 | 145.14207 | 14638 ft | 318 kts | 105° |
| 2026-05-08 04:16 | -37.87612 | 145.16999 | 15237 ft | 321 kts | 105° |
| 2026-05-08 04:17 | -37.87930 | 145.19816 | 15837 ft | 324 kts | 105° |
| 2026-05-08 04:17 | -37.88252 | 145.22659 | 16446 ft | 327 kts | 105° |
| 2026-05-08 04:17 | -37.88576 | 145.25524 | 17047 ft | 330 kts | 104° |
| 2026-05-08 04:17 | -37.88898 | 145.28380 | 17676 ft | 334 kts | 104° |
| 2026-05-08 04:18 | -37.89228 | 145.31309 | 18258 ft | 337 kts | 104° |
| 2026-05-08 04:18 | -37.89560 | 145.34275 | 18816 ft | 341 kts | 104° |
| 2026-05-08 04:18 | -37.89893 | 145.37263 | 19347 ft | 344 kts | 104° |
| 2026-05-08 04:18 | -37.90228 | 145.40273 | 19895 ft | 347 kts | 104° |
| 2026-05-08 04:19 | -37.90566 | 145.43312 | 20443 ft | 349 kts | 104° |
| 2026-05-08 04:19 | -37.90905 | 145.46367 | 20975 ft | 352 kts | 104° |
| 2026-05-08 04:19 | -37.91246 | 145.49446 | 21497 ft | 355 kts | 103° |
| 2026-05-08 04:19 | -37.91588 | 145.52554 | 22043 ft | 357 kts | 103° |
| 2026-05-08 04:20 | -37.91932 | 145.55680 | 22572 ft | 360 kts | 104° |
| 2026-05-08 04:20 | -37.92279 | 145.58834 | 23081 ft | 363 kts | 104° |
| 2026-05-08 04:20 | -37.92787 | 145.61913 | 23599 ft | 360 kts | 112° |
| 2026-05-08 04:20 | -37.93601 | 145.64912 | 24069 ft | 360 kts | 116° |
| 2026-05-08 04:21 | -37.94480 | 145.67895 | 24521 ft | 362 kts | 117° |
| 2026-05-08 04:21 | -37.95369 | 145.70890 | 24978 ft | 364 kts | 117° |
| 2026-05-08 04:21 | -37.96268 | 145.73917 | 25329 ft | 370 kts | 117° |
| 2026-05-08 04:21 | -37.97175 | 145.76983 | 25738 ft | 373 kts | 117° |
| 2026-05-08 04:22 | -37.98085 | 145.80077 | 26162 ft | 375 kts | 117° |
| 2026-05-08 04:22 | -37.99000 | 145.83198 | 26513 ft | 379 kts | 117° |
| 2026-05-08 04:22 | -37.99923 | 145.86343 | 26878 ft | 382 kts | 117° |
| 2026-05-08 04:22 | -38.00855 | 145.89516 | 27196 ft | 386 kts | 117° |
| 2026-05-08 04:23 | -38.01796 | 145.92722 | 27502 ft | 390 kts | 117° |
| 2026-05-08 04:23 | -38.02735 | 145.95927 | 27816 ft | 393 kts | 117° |
| 2026-05-08 04:23 | -38.03687 | 145.99185 | 28134 ft | 396 kts | 117° |
| 2026-05-08 04:23 | -38.04651 | 146.02484 | 28423 ft | 399 kts | 117° |
| 2026-05-08 04:24 | -38.05618 | 146.05802 | 28743 ft | 402 kts | 117° |
| 2026-05-08 04:24 | -38.06591 | 146.09142 | 29052 ft | 405 kts | 117° |
| 2026-05-08 04:24 | -38.07570 | 146.12509 | 29319 ft | 408 kts | 117° |
| 2026-05-08 04:24 | -38.08556 | 146.15903 | 29584 ft | 411 kts | 117° |
| 2026-05-08 04:25 | -38.09548 | 146.19318 | 29852 ft | 414 kts | 117° |
| 2026-05-08 04:25 | -38.10547 | 146.22764 | 30107 ft | 417 kts | 117° |
| 2026-05-08 04:25 | -38.11553 | 146.26236 | 30332 ft | 420 kts | 117° |
| 2026-05-08 04:25 | -38.12564 | 146.29733 | 30522 ft | 423 kts | 117° |
| 2026-05-08 04:26 | -38.13582 | 146.33262 | 30749 ft | 426 kts | 117° |
| 2026-05-08 04:26 | -38.14603 | 146.36804 | 30955 ft | 428 kts | 117° |
| 2026-05-08 04:26 | -38.15627 | 146.40359 | 31163 ft | 430 kts | 117° |
| 2026-05-08 04:26 | -38.16657 | 146.43941 | 31375 ft | 432 kts | 117° |
| 2026-05-08 04:27 | -38.17688 | 146.47528 | 31561 ft | 433 kts | 117° |
| 2026-05-08 04:27 | -38.18723 | 146.51138 | 31750 ft | 435 kts | 117° |
| 2026-05-08 04:27 | -38.19761 | 146.54760 | 31937 ft | 436 kts | 117° |
| 2026-05-08 04:27 | -38.20799 | 146.58388 | 32125 ft | 438 kts | 117° |
| 2026-05-08 04:28 | -38.21843 | 146.62041 | 32311 ft | 439 kts | 116° |
| 2026-05-08 04:28 | -38.22887 | 146.65699 | 32491 ft | 441 kts | 116° |
| 2026-05-08 04:28 | -38.23920 | 146.69324 | 32662 ft | 442 kts | 116° |
| 2026-05-08 04:28 | -38.24968 | 146.73008 | 32860 ft | 443 kts | 116° |
| 2026-05-08 04:29 | -38.26014 | 146.76693 | 33036 ft | 444 kts | 116° |
| 2026-05-08 04:29 | -38.27064 | 146.80394 | 33152 ft | 446 kts | 116° |
| 2026-05-08 04:29 | -38.29186 | 146.87881 | 33184 ft | 452 kts | 116° |
| 2026-05-08 04:30 | -38.31292 | 146.95368 | 33174 ft | 445 kts | 116° |
| 2026-05-08 04:30 | -38.33378 | 147.02770 | 33169 ft | 444 kts | 116° |
| 2026-05-08 04:31 | -38.35466 | 147.10191 | 33162 ft | 445 kts | 116° |
| 2026-05-08 04:31 | -38.37546 | 147.17627 | 33159 ft | 445 kts | 116° |
| 2026-05-08 04:32 | -38.39627 | 147.25079 | 33155 ft | 446 kts | 116° |
| 2026-05-08 04:32 | -38.41690 | 147.32492 | 33147 ft | 446 kts | 116° |
| 2026-05-08 04:33 | -38.43763 | 147.39960 | 33165 ft | 446 kts | 117° |
| 2026-05-08 04:33 | -38.45828 | 147.47419 | 33145 ft | 445 kts | 117° |
| 2026-05-08 04:34 | -38.47884 | 147.54870 | 33144 ft | 445 kts | 117° |
| 2026-05-08 04:34 | -38.49939 | 147.62332 | 33134 ft | 445 kts | 116° |
| 2026-05-08 04:35 | -38.51972 | 147.69744 | 33133 ft | 445 kts | 117° |
| 2026-05-08 04:35 | -38.54011 | 147.77200 | 33129 ft | 444 kts | 117° |
| 2026-05-08 04:36 | -38.56044 | 147.84646 | 33120 ft | 444 kts | 117° |
| 2026-05-08 04:36 | -38.58074 | 147.92103 | 33123 ft | 444 kts | 117° |
| 2026-05-08 04:37 | -38.60096 | 147.99564 | 33123 ft | 444 kts | 117° |
| 2026-05-08 04:37 | -38.62113 | 148.07023 | 33113 ft | 443 kts | 117° |
| 2026-05-08 04:38 | -38.64115 | 148.14440 | 33114 ft | 444 kts | 117° |
| 2026-05-08 04:38 | -38.66123 | 148.21910 | 33131 ft | 444 kts | 117° |
| 2026-05-08 04:39 | -38.68128 | 148.29390 | 33106 ft | 444 kts | 117° |
| 2026-05-08 04:39 | -38.70129 | 148.36873 | 33095 ft | 444 kts | 117° |
| 2026-05-08 04:40 | -38.72126 | 148.44365 | 33097 ft | 444 kts | 117° |
| 2026-05-08 04:40 | -38.74103 | 148.51807 | 33107 ft | 444 kts | 117° |
| 2026-05-08 04:41 | -38.76088 | 148.59296 | 33086 ft | 443 kts | 117° |
| 2026-05-08 04:41 | -38.78062 | 148.66770 | 33079 ft | 443 kts | 117° |
| 2026-05-08 04:42 | -38.80037 | 148.74260 | 33079 ft | 444 kts | 117° |
| 2026-05-08 04:42 | -38.82010 | 148.81780 | 33080 ft | 444 kts | 117° |
| 2026-05-08 04:43 | -38.83967 | 148.89261 | 33070 ft | 441 kts | 117° |
| 2026-05-08 04:43 | -38.85913 | 148.96709 | 33064 ft | 441 kts | 117° |
| 2026-05-08 04:44 | -38.87863 | 149.04191 | 33059 ft | 442 kts | 117° |
| 2026-05-08 04:44 | -38.89774 | 149.11587 | 33059 ft | 434 kts | 117° |
| 2026-05-08 04:45 | -38.91683 | 149.18946 | 33060 ft | 435 kts | 117° |
| 2026-05-08 04:45 | -38.93597 | 149.26346 | 33050 ft | 437 kts | 117° |
| 2026-05-08 04:46 | -38.95508 | 149.33793 | 33053 ft | 439 kts | 117° |
| 2026-05-08 04:46 | -38.97410 | 149.41212 | 33050 ft | 439 kts | 117° |
| 2026-05-08 04:47 | -38.99318 | 149.48672 | 33050 ft | 438 kts | 117° |
| 2026-05-08 04:47 | -39.01211 | 149.56104 | 33041 ft | 438 kts | 117° |
| 2026-05-08 04:48 | -39.03107 | 149.63559 | 33058 ft | 439 kts | 117° |
| 2026-05-08 04:48 | -39.05000 | 149.71034 | 33045 ft | 439 kts | 117° |
| 2026-05-08 04:49 | -39.06884 | 149.78499 | 33038 ft | 438 kts | 117° |
| 2026-05-08 04:49 | -39.08761 | 149.85948 | 33030 ft | 438 kts | 117° |
| 2026-05-08 04:50 | -39.10627 | 149.93378 | 33045 ft | 439 kts | 117° |
| 2026-05-08 04:50 | -39.12499 | 150.00866 | 33032 ft | 439 kts | 117° |
| 2026-05-08 04:51 | -39.14366 | 150.08348 | 33024 ft | 439 kts | 117° |
| 2026-05-08 04:51 | -39.16232 | 150.15847 | 33024 ft | 439 kts | 117° |
| 2026-05-08 04:52 | -39.18089 | 150.23343 | 33021 ft | 439 kts | 117° |
| 2026-05-08 04:52 | -39.19937 | 150.30821 | 33009 ft | 437 kts | 117° |
| 2026-05-08 04:53 | -39.21780 | 150.38294 | 33007 ft | 438 kts | 117° |
| 2026-05-08 04:53 | -39.23607 | 150.45742 | 33008 ft | 438 kts | 117° |
| 2026-05-08 04:54 | -39.25282 | 150.53342 | 33011 ft | 442 kts | 115° |
| 2026-05-08 04:54 | -39.26809 | 150.61030 | 33005 ft | 441 kts | 115° |
| 2026-05-08 04:55 | -39.28149 | 150.67386 | 32995 ft | 440 kts | 116° |
| 2026-05-08 04:55 | -39.29769 | 150.75018 | 32996 ft | 441 kts | 115° |
| 2026-05-08 04:56 | -39.31604 | 150.83929 | 32995 ft | 441 kts | 115° |
| 2026-05-08 04:56 | -39.32921 | 150.90297 | 32981 ft | 440 kts | 115° |
| 2026-05-08 04:57 | -39.34502 | 150.97933 | 32978 ft | 439 kts | 115° |
| 2026-05-08 04:57 | -39.36074 | 151.05579 | 33021 ft | 440 kts | 115° |
| 2026-05-08 04:58 | -39.37881 | 151.14433 | 32972 ft | 436 kts | 115° |
| 2026-05-08 04:58 | -39.39179 | 151.20781 | 32970 ft | 436 kts | 115° |
| 2026-05-08 04:59 | -39.40732 | 151.28392 | 32966 ft | 438 kts | 115° |
| 2026-05-08 04:59 | -39.42265 | 151.35977 | 32989 ft | 439 kts | 115° |
| 2026-05-08 05:00 | -39.43792 | 151.43564 | 32962 ft | 433 kts | 115° |
| 2026-05-08 05:00 | -39.45316 | 151.51114 | 32953 ft | 434 kts | 115° |
| 2026-05-08 05:01 | -39.46837 | 151.58693 | 32942 ft | 435 kts | 115° |
| 2026-05-08 05:01 | -39.48350 | 151.66290 | 32963 ft | 435 kts | 115° |
| 2026-05-08 05:02 | -39.49849 | 151.73828 | 32941 ft | 433 kts | 115° |
| 2026-05-08 05:02 | -39.51346 | 151.81375 | 32930 ft | 432 kts | 115° |
| 2026-05-08 05:03 | -39.52842 | 151.88940 | 32928 ft | 434 kts | 115° |
| 2026-05-08 05:03 | -39.54335 | 151.96531 | 32954 ft | 436 kts | 114° |
| 2026-05-08 05:04 | -39.55824 | 152.04139 | 32928 ft | 435 kts | 114° |
| 2026-05-08 05:04 | -39.57304 | 152.11721 | 32926 ft | 433 kts | 114° |
| 2026-05-08 05:05 | -39.58782 | 152.19308 | 32914 ft | 434 kts | 114° |
| 2026-05-08 05:05 | -39.60244 | 152.26851 | 32919 ft | 434 kts | 114° |
| 2026-05-08 05:06 | -39.61709 | 152.34448 | 32911 ft | 434 kts | 114° |
| 2026-05-08 05:06 | -39.63173 | 152.42057 | 32902 ft | 434 kts | 114° |
| 2026-05-08 05:07 | -39.64629 | 152.49656 | 32903 ft | 434 kts | 114° |
| 2026-05-08 05:07 | -39.66082 | 152.57263 | 32914 ft | 435 kts | 114° |
| 2026-05-08 05:08 | -39.67532 | 152.64891 | 32896 ft | 435 kts | 114° |
| 2026-05-08 05:08 | -39.68968 | 152.72478 | 32895 ft | 435 kts | 114° |
| 2026-05-08 05:09 | -39.70418 | 152.80163 | 32888 ft | 435 kts | 114° |
| 2026-05-08 05:09 | -39.71846 | 152.87753 | 32905 ft | 437 kts | 113° |
| 2026-05-08 05:10 | -39.74005 | 152.99302 | 32884 ft | 439 kts | 112° |
| 2026-05-08 05:11 | -39.75447 | 153.07047 | 32875 ft | 442 kts | 112° |
| 2026-05-08 05:11 | -39.76889 | 153.14828 | 32893 ft | 443 kts | 112° |
| 2026-05-08 05:12 | -39.78326 | 153.22620 | 32873 ft | 443 kts | 112° |
| 2026-05-08 05:12 | -39.79753 | 153.30378 | 32863 ft | 443 kts | 112° |
| 2026-05-08 05:13 | -39.81183 | 153.38187 | 32854 ft | 443 kts | 112° |
| 2026-05-08 05:13 | -39.82606 | 153.45996 | 32881 ft | 444 kts | 111° |
| 2026-05-08 05:14 | -39.84032 | 153.53834 | 32858 ft | 445 kts | 111° |
| 2026-05-08 05:14 | -39.85445 | 153.61655 | 32852 ft | 446 kts | 111° |
| 2026-05-08 05:15 | -39.86860 | 153.69517 | 32845 ft | 446 kts | 111° |
| 2026-05-08 05:15 | -39.88272 | 153.77383 | 32859 ft | 447 kts | 110° |
| 2026-05-08 05:16 | -39.89682 | 153.85273 | 32843 ft | 447 kts | 110° |
| 2026-05-08 05:16 | -39.91084 | 153.93166 | 32835 ft | 447 kts | 110° |
| 2026-05-08 05:17 | -39.92485 | 154.01069 | 32824 ft | 448 kts | 110° |
| 2026-05-08 05:17 | -39.93881 | 154.08978 | 32842 ft | 448 kts | 110° |
| 2026-05-08 05:18 | -39.95276 | 154.16920 | 32818 ft | 450 kts | 109° |
| 2026-05-08 05:18 | -39.96659 | 154.24835 | 32813 ft | 450 kts | 109° |
| 2026-05-08 05:19 | -39.98045 | 154.32797 | 32806 ft | 450 kts | 109° |
| 2026-05-08 05:19 | -39.99282 | 154.39951 | 32815 ft | 451 kts | 109° |
| 2026-05-08 05:20 | -40.00671 | 154.47972 | 32807 ft | 455 kts | 109° |
| 2026-05-08 05:20 | -40.02044 | 154.55938 | 32798 ft | 457 kts | 109° |
| 2026-05-08 05:21 | -40.03422 | 154.64022 | 32788 ft | 455 kts | 108° |
| 2026-05-08 05:21 | -40.04790 | 154.72048 | 32790 ft | 452 kts | 108° |
| 2026-05-08 05:22 | -40.06152 | 154.80061 | 32778 ft | 452 kts | 108° |
| 2026-05-08 05:22 | -40.07509 | 154.88100 | 32775 ft | 453 kts | 108° |
| 2026-05-08 05:23 | -40.08851 | 154.96088 | 32775 ft | 453 kts | 108° |
| 2026-05-08 05:23 | -40.10127 | 155.03701 | 32785 ft | 454 kts | 107° |
| 2026-05-08 05:24 | -40.11467 | 155.11741 | 32776 ft | 456 kts | 107° |
| 2026-05-08 05:24 | -40.12807 | 155.19825 | 32773 ft | 455 kts | 107° |
| 2026-05-08 05:25 | -40.14145 | 155.27925 | 32768 ft | 455 kts | 107° |
| 2026-05-08 05:25 | -40.15474 | 155.36009 | 32770 ft | 455 kts | 107° |
| 2026-05-08 05:26 | -40.16798 | 155.44102 | 32768 ft | 455 kts | 107° |
| 2026-05-08 05:26 | -40.18107 | 155.52138 | 32760 ft | 455 kts | 107° |
| 2026-05-08 05:27 | -40.19420 | 155.60242 | 32763 ft | 455 kts | 107° |
| 2026-05-08 05:27 | -40.20728 | 155.68343 | 32762 ft | 455 kts | 106° |
| 2026-05-08 05:28 | -40.22032 | 155.76465 | 32753 ft | 456 kts | 106° |
| 2026-05-08 05:28 | -40.23332 | 155.84600 | 32753 ft | 457 kts | 105° |
| 2026-05-08 05:29 | -40.24628 | 155.92749 | 32748 ft | 457 kts | 105° |
| 2026-05-08 05:29 | -40.25897 | 156.00765 | 32753 ft | 458 kts | 105° |
| 2026-05-08 05:30 | -40.27176 | 156.08881 | 32746 ft | 458 kts | 105° |
| 2026-05-08 05:30 | -40.28456 | 156.17048 | 32747 ft | 457 kts | 105° |
| 2026-05-08 05:31 | -40.29733 | 156.25227 | 32759 ft | 458 kts | 104° |
| 2026-05-08 05:31 | -40.31003 | 156.33409 | 32748 ft | 458 kts | 104° |
| 2026-05-08 05:32 | -40.32266 | 156.41584 | 32741 ft | 457 kts | 104° |
| 2026-05-08 05:32 | -40.33516 | 156.49712 | 32740 ft | 458 kts | 104° |
| 2026-05-08 05:33 | -40.34768 | 156.57900 | 32744 ft | 458 kts | 104° |
| 2026-05-08 05:33 | -40.36016 | 156.66103 | 32737 ft | 458 kts | 104° |
| 2026-05-08 05:34 | -40.37257 | 156.74303 | 32736 ft | 457 kts | 103° |
| 2026-05-08 05:34 | -40.38490 | 156.82486 | 32736 ft | 457 kts | 103° |
| 2026-05-08 05:35 | -40.39717 | 156.90674 | 32744 ft | 457 kts | 103° |
| 2026-05-08 05:35 | -40.40936 | 156.98865 | 32740 ft | 458 kts | 103° |
| 2026-05-08 05:36 | -40.42145 | 157.07023 | 32734 ft | 458 kts | 103° |
| 2026-05-08 05:36 | -40.43355 | 157.15226 | 32734 ft | 458 kts | 103° |
| 2026-05-08 05:37 | -40.44561 | 157.23446 | 32734 ft | 458 kts | 103° |
| 2026-05-08 05:37 | -40.45762 | 157.31672 | 32730 ft | 459 kts | 103° |
| 2026-05-08 05:38 | -40.46956 | 157.39905 | 32730 ft | 459 kts | 103° |
| 2026-05-08 05:38 | -40.48145 | 157.48138 | 32721 ft | 459 kts | 103° |
| 2026-05-08 05:39 | -40.49322 | 157.56331 | 32726 ft | 459 kts | 103° |
| 2026-05-08 05:39 | -40.50502 | 157.64584 | 32716 ft | 460 kts | 103° |
| 2026-05-08 05:40 | -40.51675 | 157.72841 | 32730 ft | 459 kts | 103° |
| 2026-05-08 05:40 | -40.52843 | 157.81105 | 32724 ft | 460 kts | 102° |
| 2026-05-08 05:41 | -40.54005 | 157.89373 | 32722 ft | 460 kts | 103° |
| 2026-05-08 05:41 | -40.55164 | 157.97657 | 32719 ft | 461 kts | 102° |
| 2026-05-08 05:42 | -40.56318 | 158.05956 | 32713 ft | 460 kts | 103° |
| 2026-05-08 05:42 | -40.57464 | 158.14242 | 32718 ft | 461 kts | 102° |
| 2026-05-08 05:43 | -40.58413 | 158.21136 | 32731 ft | 461 kts | 103° |
| 2026-05-08 05:43 | -40.59738 | 158.30815 | 32726 ft | 463 kts | 104° |
| 2026-05-08 05:44 | -40.60873 | 158.39165 | 32715 ft | 464 kts | 102° |
| 2026-05-08 05:44 | -40.61813 | 158.46115 | 32720 ft | 464 kts | 103° |
| 2026-05-08 05:45 | -40.62940 | 158.54482 | 32716 ft | 463 kts | 102° |
| 2026-05-08 05:45 | -40.64057 | 158.62826 | 32718 ft | 463 kts | 102° |
| 2026-05-08 05:46 | -40.65169 | 158.71173 | 32701 ft | 463 kts | 103° |
| 2026-05-08 05:46 | -40.66273 | 158.79528 | 32703 ft | 463 kts | 103° |
| 2026-05-08 05:47 | -40.67376 | 158.87903 | 32701 ft | 463 kts | 102° |
| 2026-05-08 05:47 | -40.68470 | 158.96275 | 32704 ft | 463 kts | 102° |
| 2026-05-08 05:48 | -40.69557 | 159.04630 | 32696 ft | 462 kts | 103° |
| 2026-05-08 05:48 | -40.70631 | 159.12942 | 32694 ft | 464 kts | 102° |
| 2026-05-08 05:49 | -40.71710 | 159.21332 | 32693 ft | 464 kts | 103° |
| 2026-05-08 05:49 | -40.72783 | 159.29736 | 32687 ft | 464 kts | 103° |
| 2026-05-08 05:50 | -40.73850 | 159.38137 | 32688 ft | 464 kts | 103° |
| 2026-05-08 05:50 | -40.74909 | 159.46530 | 32680 ft | 464 kts | 103° |
| 2026-05-08 05:51 | -40.75959 | 159.54887 | 32675 ft | 465 kts | 103° |
| 2026-05-08 05:51 | -40.77007 | 159.63309 | 32676 ft | 465 kts | 103° |
| 2026-05-08 05:52 | -40.78050 | 159.71723 | 32667 ft | 464 kts | 102° |
| 2026-05-08 05:52 | -40.79092 | 159.80174 | 32659 ft | 467 kts | 101° |
| 2026-05-08 05:53 | -40.80127 | 159.88635 | 32664 ft | 466 kts | 100° |
| 2026-05-08 05:53 | -40.81158 | 159.97116 | 32649 ft | 468 kts | 101° |
| 2026-05-08 05:54 | -40.82182 | 160.05584 | 32656 ft | 467 kts | 102° |
| 2026-05-08 05:54 | -40.83198 | 160.14062 | 32650 ft | 467 kts | 101° |
| 2026-05-08 05:55 | -40.84204 | 160.22482 | 32642 ft | 468 kts | 101° |
| 2026-05-08 05:55 | -40.85217 | 160.31014 | 32648 ft | 469 kts | 100° |
| 2026-05-08 05:56 | -40.86220 | 160.39544 | 32638 ft | 470 kts | 100° |
| 2026-05-08 05:56 | -40.87217 | 160.48073 | 32632 ft | 469 kts | 100° |
| 2026-05-08 05:57 | -40.88210 | 160.56603 | 32633 ft | 470 kts | 99° |
| 2026-05-08 05:57 | -40.89195 | 160.65138 | 32626 ft | 469 kts | 99° |
| 2026-05-08 05:58 | -40.90167 | 160.73617 | 32623 ft | 470 kts | 99° |
| 2026-05-08 05:58 | -40.91141 | 160.82166 | 32622 ft | 470 kts | 99° |
| 2026-05-08 05:59 | -40.92109 | 160.90718 | 32614 ft | 470 kts | 98° |
| 2026-05-08 05:59 | -40.93069 | 160.99264 | 32612 ft | 469 kts | 98° |
| 2026-05-08 06:00 | -40.94023 | 161.07820 | 32604 ft | 470 kts | 98° |
| 2026-05-08 06:00 | -40.94974 | 161.16394 | 32597 ft | 470 kts | 98° |
| 2026-05-08 06:01 | -40.95911 | 161.24900 | 32600 ft | 470 kts | 98° |
| 2026-05-08 06:01 | -40.96845 | 161.33450 | 32584 ft | 469 kts | 97° |
| 2026-05-08 06:02 | -40.97771 | 161.41990 | 32592 ft | 468 kts | 98° |
| 2026-05-08 06:02 | -40.98690 | 161.50516 | 32579 ft | 469 kts | 97° |
| 2026-05-08 06:03 | -40.99604 | 161.59052 | 32572 ft | 467 kts | 96° |
| 2026-05-08 06:03 | -41.00510 | 161.67566 | 32569 ft | 467 kts | 97° |
| 2026-05-08 06:04 | -41.01401 | 161.76028 | 32566 ft | 467 kts | 96° |
| 2026-05-08 06:04 | -41.02293 | 161.84547 | 32558 ft | 467 kts | 95° |
| 2026-05-08 06:05 | -41.03177 | 161.93060 | 32561 ft | 466 kts | 95° |
| 2026-05-08 06:05 | -41.04058 | 162.01588 | 32551 ft | 466 kts | 97° |
| 2026-05-08 06:06 | -41.04924 | 162.10048 | 32549 ft | 466 kts | 95° |
| 2026-05-08 06:06 | -41.05789 | 162.18561 | 32533 ft | 466 kts | 96° |
| 2026-05-08 06:07 | -41.06648 | 162.27072 | 32519 ft | 466 kts | 95° |
| 2026-05-08 06:07 | -41.07501 | 162.35585 | 32522 ft | 465 kts | 94° |
| 2026-05-08 06:08 | -41.08345 | 162.44091 | 32510 ft | 465 kts | 95° |
| 2026-05-08 06:08 | -41.09184 | 162.52593 | 32514 ft | 464 kts | 95° |
| 2026-05-08 06:09 | -41.10011 | 162.61049 | 32498 ft | 466 kts | 95° |
| 2026-05-08 06:09 | -41.10839 | 162.69564 | 32479 ft | 465 kts | 94° |
| 2026-05-08 06:10 | -41.11658 | 162.78083 | 32481 ft | 465 kts | 95° |
| 2026-05-08 06:10 | -41.12474 | 162.86615 | 32464 ft | 466 kts | 96° |
| 2026-05-08 06:11 | -41.13279 | 162.95134 | 32441 ft | 465 kts | 95° |
| 2026-05-08 06:11 | -41.14042 | 163.03648 | 32447 ft | 465 kts | 91° |
| 2026-05-08 06:12 | -41.14572 | 163.12187 | 32437 ft | 464 kts | 90° |
| 2026-05-08 06:12 | -41.15093 | 163.20678 | 32429 ft | 464 kts | 92° |
| 2026-05-08 06:13 | -41.15686 | 163.29217 | 32417 ft | 464 kts | 90° |
| 2026-05-08 06:13 | -41.16235 | 163.37747 | 32400 ft | 463 kts | 91° |
| 2026-05-08 06:14 | -41.16770 | 163.46274 | 32401 ft | 464 kts | 92° |
| 2026-05-08 06:14 | -41.17317 | 163.54813 | 32389 ft | 465 kts | 89° |
| 2026-05-08 06:15 | -41.17851 | 163.63361 | 32391 ft | 464 kts | 92° |
| 2026-05-08 06:15 | -41.18376 | 163.71920 | 32381 ft | 466 kts | 91° |
| 2026-05-08 06:16 | -41.18898 | 163.80452 | 32375 ft | 468 kts | 91° |
| 2026-05-08 06:16 | -41.19416 | 163.89052 | 32373 ft | 467 kts | 91° |
| 2026-05-08 06:17 | -41.20178 | 164.01930 | 32358 ft | 466 kts | 92° |
| 2026-05-08 06:17 | -41.20679 | 164.10504 | 32354 ft | 466 kts | 92° |
| 2026-05-08 06:18 | -41.21174 | 164.19099 | 32362 ft | 467 kts | 92° |
| 2026-05-08 06:18 | -41.21663 | 164.27704 | 32352 ft | 467 kts | 92° |
| 2026-05-08 06:19 | -41.22145 | 164.36294 | 32332 ft | 466 kts | 92° |
| 2026-05-08 06:19 | -41.22616 | 164.44816 | 32346 ft | 465 kts | 92° |
| 2026-05-08 06:20 | -41.23083 | 164.53371 | 32346 ft | 464 kts | 92° |
| 2026-05-08 06:20 | -41.23544 | 164.61935 | 32347 ft | 465 kts | 92° |
| 2026-05-08 06:21 | -41.23999 | 164.70502 | 32341 ft | 465 kts | 92° |
| 2026-05-08 06:21 | -41.24447 | 164.79065 | 32335 ft | 465 kts | 91° |
| 2026-05-08 06:22 | -41.24889 | 164.87648 | 32341 ft | 465 kts | 91° |
| 2026-05-08 06:22 | -41.25323 | 164.96172 | 32339 ft | 465 kts | 91° |
| 2026-05-08 06:23 | -41.25752 | 165.04740 | 32340 ft | 465 kts | 91° |
| 2026-05-08 06:23 | -41.26176 | 165.13324 | 32333 ft | 465 kts | 91° |
| 2026-05-08 06:24 | -41.26593 | 165.21911 | 32335 ft | 466 kts | 91° |
| 2026-05-08 06:24 | -41.27004 | 165.30496 | 32336 ft | 465 kts | 91° |
| 2026-05-08 06:25 | -41.27408 | 165.39088 | 32337 ft | 465 kts | 91° |
| 2026-05-08 06:25 | -41.27806 | 165.47670 | 32337 ft | 465 kts | 91° |
| 2026-05-08 06:26 | -41.28196 | 165.56210 | 32332 ft | 466 kts | 91° |
| 2026-05-08 06:26 | -41.28582 | 165.64834 | 32334 ft | 469 kts | 91° |
| 2026-05-08 06:27 | -41.28965 | 165.73519 | 32333 ft | 472 kts | 91° |
| 2026-05-08 06:27 | -41.29345 | 165.82259 | 32321 ft | 473 kts | 90° |
| 2026-05-08 06:28 | -41.29716 | 165.90984 | 32331 ft | 472 kts | 90° |
| 2026-05-08 06:28 | -41.30080 | 165.99688 | 32327 ft | 471 kts | 90° |
| 2026-05-08 06:29 | -41.30437 | 166.08398 | 32333 ft | 471 kts | 90° |
| 2026-05-08 06:29 | -41.30788 | 166.17102 | 32311 ft | 471 kts | 90° |
| 2026-05-08 06:30 | -41.31133 | 166.25832 | 32329 ft | 473 kts | 89° |
| 2026-05-08 06:30 | -41.31472 | 166.34599 | 32334 ft | 475 kts | 89° |
| 2026-05-08 06:31 | -41.31805 | 166.43326 | 32324 ft | 475 kts | 89° |
| 2026-05-08 06:31 | -41.32132 | 166.52085 | 32314 ft | 474 kts | 89° |
| 2026-05-08 06:32 | -41.32451 | 166.60850 | 32329 ft | 475 kts | 89° |
| 2026-05-08 06:32 | -41.32712 | 166.68169 | 32331 ft | 478 kts | 89° |
| 2026-05-08 06:33 | -41.33024 | 166.77028 | 32331 ft | 479 kts | 89° |
| 2026-05-08 06:33 | -41.33329 | 166.85886 | 32331 ft | 478 kts | 88° |
| 2026-05-08 06:34 | -41.33626 | 166.94723 | 32323 ft | 477 kts | 87° |
| 2026-05-08 06:34 | -41.33914 | 167.03583 | 32331 ft | 480 kts | 87° |
| 2026-05-08 06:35 | -41.34200 | 167.12474 | 32330 ft | 481 kts | 87° |
| 2026-05-08 06:35 | -41.34479 | 167.21357 | 32332 ft | 480 kts | 87° |
| 2026-05-08 06:36 | -41.34748 | 167.30182 | 32329 ft | 479 kts | 86° |
| 2026-05-08 06:36 | -41.35010 | 167.39059 | 32332 ft | 481 kts | 86° |
| 2026-05-08 06:37 | -41.35268 | 167.47978 | 32334 ft | 481 kts | 85° |
| 2026-05-08 06:37 | -41.35520 | 167.56880 | 32340 ft | 481 kts | 85° |
| 2026-05-08 06:38 | -41.35765 | 167.65776 | 32329 ft | 480 kts | 84° |
| 2026-05-08 06:38 | -41.35998 | 167.74603 | 32342 ft | 481 kts | 84° |
| 2026-05-08 06:39 | -41.36228 | 167.83503 | 32345 ft | 481 kts | 84° |
| 2026-05-08 06:39 | -41.36453 | 167.92403 | 32344 ft | 480 kts | 84° |
| 2026-05-08 06:40 | -41.36669 | 168.01288 | 32328 ft | 479 kts | 83° |
| 2026-05-08 06:40 | -41.36878 | 168.10142 | 32327 ft | 478 kts | 82° |
| 2026-05-08 06:41 | -41.37076 | 168.18931 | 32344 ft | 479 kts | 82° |
| 2026-05-08 06:41 | -41.37271 | 168.27814 | 32349 ft | 479 kts | 82° |
| 2026-05-08 06:42 | -41.37462 | 168.36688 | 32325 ft | 477 kts | 82° |
| 2026-05-08 06:42 | -41.37642 | 168.45468 | 32350 ft | 475 kts | 81° |
| 2026-05-08 06:43 | -41.37813 | 168.54284 | 32365 ft | 476 kts | 81° |
| 2026-05-08 06:43 | -41.37981 | 168.63113 | 32366 ft | 477 kts | 81° |
| 2026-05-08 06:44 | -41.38142 | 168.71878 | 32338 ft | 476 kts | 81° |
| 2026-05-08 06:44 | -41.38296 | 168.80660 | 32365 ft | 472 kts | 81° |
| 2026-05-08 06:45 | -41.38439 | 168.89397 | 32373 ft | 473 kts | 81° |
| 2026-05-08 06:45 | -41.38577 | 168.98163 | 32376 ft | 474 kts | 81° |
| 2026-05-08 06:46 | -41.38713 | 169.06930 | 32383 ft | 474 kts | 81° |
| 2026-05-08 06:46 | -41.38838 | 169.15706 | 32392 ft | 473 kts | 81° |
| 2026-05-08 06:47 | -41.38957 | 169.24473 | 32390 ft | 473 kts | 81° |
| 2026-05-08 06:47 | -41.39070 | 169.33184 | 32389 ft | 473 kts | 81° |
| 2026-05-08 06:48 | -41.39176 | 169.41942 | 32396 ft | 473 kts | 81° |
| 2026-05-08 06:48 | -41.39277 | 169.50702 | 32386 ft | 470 kts | 81° |
| 2026-05-08 06:49 | -41.39370 | 169.59397 | 32403 ft | 469 kts | 81° |
| 2026-05-08 06:49 | -41.39451 | 169.68087 | 32414 ft | 470 kts | 81° |
| 2026-05-08 06:50 | -41.39532 | 169.76798 | 32423 ft | 470 kts | 81° |
| 2026-05-08 06:50 | -41.39607 | 169.85481 | 32403 ft | 468 kts | 81° |
| 2026-05-08 06:51 | -41.39671 | 169.94088 | 32425 ft | 468 kts | 81° |
| 2026-05-08 06:51 | -41.39728 | 170.02764 | 32442 ft | 468 kts | 81° |
| 2026-05-08 06:52 | -41.39783 | 170.11436 | 32440 ft | 468 kts | 81° |
| 2026-05-08 06:52 | -41.39829 | 170.20103 | 32422 ft | 467 kts | 80° |
| 2026-05-08 06:53 | -41.39869 | 170.28755 | 32441 ft | 467 kts | 80° |
| 2026-05-08 06:53 | -41.39899 | 170.37411 | 32458 ft | 467 kts | 80° |
| 2026-05-08 06:54 | -41.39886 | 170.45992 | 32458 ft | 465 kts | 79° |
| 2026-05-08 06:54 | -41.39789 | 170.54604 | 32432 ft | 465 kts | 79° |
| 2026-05-08 06:55 | -41.39719 | 170.63212 | 32470 ft | 464 kts | 79° |
| 2026-05-08 06:55 | -41.39651 | 170.71823 | 32469 ft | 464 kts | 79° |
| 2026-05-08 06:56 | -41.39561 | 170.80435 | 32491 ft | 466 kts | 79° |
| 2026-05-08 06:56 | -41.39472 | 170.89062 | 32491 ft | 465 kts | 79° |
| 2026-05-08 06:57 | -41.39378 | 170.97623 | 32494 ft | 464 kts | 79° |
| 2026-05-08 06:57 | -41.39273 | 171.06209 | 32515 ft | 464 kts | 78° |
| 2026-05-08 06:58 | -41.39164 | 171.14802 | 32516 ft | 464 kts | 78° |
| 2026-05-08 06:58 | -41.39050 | 171.23389 | 32527 ft | 464 kts | 78° |
| 2026-05-08 06:59 | -41.38927 | 171.31980 | 32507 ft | 464 kts | 78° |
| 2026-05-08 06:59 | -41.38797 | 171.40584 | 32537 ft | 465 kts | 78° |
| 2026-05-08 07:00 | -41.38664 | 171.49141 | 32551 ft | 465 kts | 78° |
| 2026-05-08 07:00 | -41.38523 | 171.57752 | 32550 ft | 464 kts | 78° |
| 2026-05-08 07:01 | -41.38375 | 171.66343 | 32531 ft | 464 kts | 78° |
| 2026-05-08 07:01 | -41.38220 | 171.74936 | 32560 ft | 465 kts | 78° |
| 2026-05-08 07:02 | -41.38059 | 171.83555 | 32575 ft | 466 kts | 78° |
| 2026-05-08 07:02 | -41.37893 | 171.92180 | 32576 ft | 465 kts | 78° |
| 2026-05-08 07:03 | -41.37719 | 172.00781 | 32584 ft | 465 kts | 78° |
| 2026-05-08 07:03 | -41.37540 | 172.09378 | 32570 ft | 463 kts | 78° |
| 2026-05-08 07:04 | -41.37357 | 172.17893 | 32560 ft | 462 kts | 78° |
| 2026-05-08 07:04 | -41.37163 | 172.26444 | 32601 ft | 463 kts | 78° |
| 2026-05-08 07:05 | -41.36963 | 172.35026 | 32608 ft | 464 kts | 78° |
| 2026-05-08 07:05 | -41.36760 | 172.43629 | 32533 ft | 463 kts | 78° |
| 2026-05-08 07:06 | -41.36550 | 172.52190 | 32581 ft | 462 kts | 78° |
| 2026-05-08 07:06 | -41.36331 | 172.60685 | 32565 ft | 462 kts | 78° |
| 2026-05-08 07:07 | -41.36109 | 172.69253 | 32571 ft | 463 kts | 78° |
| 2026-05-08 07:07 | -41.35875 | 172.77870 | 31712 ft | 472 kts | 78° |
| 2026-05-08 07:08 | -41.35748 | 172.82271 | 30745 ft | 479 kts | 79° |
| 2026-05-08 07:08 | -41.35625 | 172.86717 | 30011 ft | 478 kts | 79° |
| 2026-05-08 07:08 | -41.35513 | 172.91111 | 29359 ft | 472 kts | 79° |
| 2026-05-08 07:08 | -41.35396 | 172.95470 | 28707 ft | 470 kts | 79° |
| 2026-05-08 07:09 | -41.35270 | 172.99756 | 28083 ft | 468 kts | 79° |
| 2026-05-08 07:09 | -41.35135 | 173.04136 | 27412 ft | 467 kts | 79° |
| 2026-05-08 07:09 | -41.35005 | 173.08391 | 26825 ft | 465 kts | 79° |
| 2026-05-08 07:09 | -41.34875 | 173.12700 | 26192 ft | 465 kts | 79° |
| 2026-05-08 07:10 | -41.34745 | 173.17013 | 25538 ft | 466 kts | 79° |
| 2026-05-08 07:10 | -41.34615 | 173.21315 | 24906 ft | 463 kts | 79° |
| 2026-05-08 07:10 | -41.34485 | 173.25575 | 24280 ft | 458 kts | 79° |
| 2026-05-08 07:10 | -41.34352 | 173.29804 | 23641 ft | 456 kts | 79° |
| 2026-05-08 07:11 | -41.34216 | 173.34000 | 22939 ft | 453 kts | 79° |
| 2026-05-08 07:11 | -41.34082 | 173.38164 | 22234 ft | 447 kts | 79° |
| 2026-05-08 07:11 | -41.33950 | 173.42276 | 21552 ft | 442 kts | 79° |
| 2026-05-08 07:11 | -41.33817 | 173.46340 | 20916 ft | 437 kts | 79° |
| 2026-05-08 07:12 | -41.33681 | 173.50369 | 20247 ft | 434 kts | 79° |
| 2026-05-08 07:12 | -41.33545 | 173.54329 | 19618 ft | 431 kts | 79° |
| 2026-05-08 07:12 | -41.33410 | 173.58297 | 18982 ft | 428 kts | 79° |
| 2026-05-08 07:12 | -41.33274 | 173.62252 | 18224 ft | 426 kts | 79° |
| 2026-05-08 07:13 | -41.33137 | 173.66183 | 17599 ft | 423 kts | 79° |
| 2026-05-08 07:13 | -41.33002 | 173.70080 | 16946 ft | 419 kts | 79° |
| 2026-05-08 07:13 | -41.32866 | 173.73933 | 16258 ft | 415 kts | 79° |
| 2026-05-08 07:13 | -41.32733 | 173.77700 | 15589 ft | 410 kts | 78° |
| 2026-05-08 07:14 | -41.32597 | 173.81509 | 14917 ft | 404 kts | 78° |
| 2026-05-08 07:14 | -41.32461 | 173.85222 | 14270 ft | 399 kts | 78° |
| 2026-05-08 07:14 | -41.32324 | 173.88889 | 13623 ft | 395 kts | 78° |
| 2026-05-08 07:14 | -41.32187 | 173.92520 | 12957 ft | 392 kts | 80° |
| 2026-05-08 07:15 | -41.32407 | 173.96114 | 12498 ft | 399 kts | 95° |
| 2026-05-08 07:15 | -41.33191 | 173.99684 | 11912 ft | 404 kts | 102° |
| 2026-05-08 07:15 | -41.34104 | 174.03245 | 11464 ft | 403 kts | 104° |
| 2026-05-08 07:15 | -41.35059 | 174.06674 | 11183 ft | 388 kts | 104° |
| 2026-05-08 07:16 | -41.35986 | 174.09970 | 10833 ft | 374 kts | 104° |
| 2026-05-08 07:16 | -41.36856 | 174.13169 | 10552 ft | 359 kts | 103° |
| 2026-05-08 07:16 | -41.37670 | 174.16254 | 10255 ft | 347 kts | 102° |
| 2026-05-08 07:16 | -41.38455 | 174.19266 | 9907 ft | 341 kts | 102° |
| 2026-05-08 07:17 | -41.39235 | 174.22248 | 9503 ft | 340 kts | 102° |
| 2026-05-08 07:17 | -41.40010 | 174.25169 | 9096 ft | 331 kts | 102° |
| 2026-05-08 07:17 | -41.40777 | 174.28047 | 8516 ft | 328 kts | 102° |
| 2026-05-08 07:17 | -41.41534 | 174.30897 | 8019 ft | 323 kts | 101° |
| 2026-05-08 07:18 | -41.42277 | 174.33702 | 7668 ft | 319 kts | 101° |
| 2026-05-08 07:18 | -41.42999 | 174.36446 | 7389 ft | 318 kts | 101° |
| 2026-05-08 07:18 | -41.43730 | 174.39234 | 7165 ft | 319 kts | 101° |
| 2026-05-08 07:18 | -41.44466 | 174.42034 | 6948 ft | 320 kts | 101° |
| 2026-05-08 07:19 | -41.45200 | 174.44820 | 6724 ft | 316 kts | 100° |
| 2026-05-08 07:19 | -41.45926 | 174.47559 | 6464 ft | 309 kts | 100° |
| 2026-05-08 07:19 | -41.46633 | 174.50234 | 6192 ft | 302 kts | 99° |
| 2026-05-08 07:19 | -41.47322 | 174.52866 | 5862 ft | 298 kts | 98° |
| 2026-05-08 07:20 | -41.47989 | 174.55416 | 5518 ft | 292 kts | 98° |
| 2026-05-08 07:20 | -41.48650 | 174.57945 | 5150 ft | 286 kts | 97° |
| 2026-05-08 07:20 | -41.49093 | 174.60434 | 4772 ft | 264 kts | 79° |
| 2026-05-08 07:20 | -41.49222 | 174.62842 | 4378 ft | 258 kts | 77° |
| 2026-05-08 07:21 | -41.49320 | 174.65209 | 3977 ft | 253 kts | 76° |
| 2026-05-08 07:21 | -41.49403 | 174.67529 | 3563 ft | 248 kts | 75° |
| 2026-05-08 07:21 | -41.49486 | 174.69809 | 3244 ft | 242 kts | 75° |
| 2026-05-08 07:21 | -41.49543 | 174.71278 | 3047 ft | 238 kts | 75° |
| 2026-05-08 07:22 | -41.49631 | 174.73424 | 2987 ft | 226 kts | 75° |
| 2026-05-08 07:22 | -41.49714 | 174.75498 | 2949 ft | 222 kts | 73° |
| 2026-05-08 07:22 | -41.49721 | 174.77506 | 2917 ft | 203 kts | 58° |
| 2026-05-08 07:22 | -41.49195 | 174.78971 | 2940 ft | 154 kts | 25° |
| 2026-05-08 07:23 | -41.48377 | 174.79591 | 2973 ft | 126 kts | 1° |
| 2026-05-08 07:23 | -41.47527 | 174.79692 | 2978 ft | 121 kts | 355° |
| 2026-05-08 07:23 | -41.46713 | 174.79750 | 2988 ft | 113 kts | 355° |
| 2026-05-08 07:23 | -41.45956 | 174.79802 | 2678 ft | 107 kts | 355° |
| 2026-05-08 07:24 | -41.45222 | 174.79849 | 2154 ft | 105 kts | 358° |
| 2026-05-08 07:24 | -41.44489 | 174.79896 | 2006 ft | 110 kts | 359° |
| 2026-05-08 07:24 | -41.43726 | 174.79945 | 1966 ft | 104 kts | 359° |
| 2026-05-08 07:24 | -41.42997 | 174.79991 | 1974 ft | 111 kts | 360° |
| 2026-05-08 07:25 | -41.42241 | 174.80044 | 1886 ft | 109 kts | 1° |
| 2026-05-08 07:25 | -41.41454 | 174.80093 | 1574 ft | 113 kts | 0° |
| 2026-05-08 07:25 | -41.39885 | 174.80155 | 1320 ft | 120 kts | 2° |
| 2026-05-08 07:26 | -41.39078 | 174.80173 | 1031 ft | 111 kts | 1° |
| 2026-05-08 07:26 | -41.38316 | 174.80261 | 960 ft | 110 kts | 5° |
| 2026-05-08 07:26 | -41.37596 | 174.80343 | 976 ft | 98 kts | 4° |
| 2026-05-08 07:26 | -41.36862 | 174.80413 | 777 ft | 118 kts | 2° |
| 2026-05-08 07:27 | -41.35942 | 174.80446 | 434 ft | 142 kts | 2° |
| 2026-05-08 07:27 | -41.34979 | 174.80562 | 307 ft | 136 kts | 4° |
| 2026-05-08 07:27 | -41.34048 | 174.80593 | 97 ft | 130 kts | 1° |
| 2026-05-08 07:27 | -41.33203 | 174.80655 | 24 ft | 108 kts | 2° |
| 2026-05-08 07:28 | -41.32628 | 174.80694 | 20 ft | 50 kts | 3° |
| 2026-05-08 07:28 | -41.32422 | 174.80716 | 21 ft | 10 kts | 33° |
| 2026-05-08 07:28 | -41.32411 | 174.80760 | 20 ft | 4 kts | 87° |
| 2026-05-08 07:28 | -41.32411 | 174.80776 | 20 ft | 0 kts | 90° |
| 2026-05-08 07:30 | -41.32411 | 174.80792 | 21 ft | 4 kts | 94° |
| 2026-05-08 07:30 | -41.32430 | 174.80825 | 21 ft | 5 kts | 147° |
| 2026-05-08 07:31 | -41.32471 | 174.80833 | 20 ft | 8 kts | 179° |
| 2026-05-08 07:31 | -41.32538 | 174.80830 | 18 ft | 12 kts | 183° |
| 2026-05-08 07:31 | -41.32635 | 174.80823 | 17 ft | 14 kts | 184° |
| 2026-05-08 07:31 | -41.32709 | 174.80840 | 17 ft | 9 kts | 123° |
| 2026-05-08 07:32 | -41.32703 | 174.80902 | 17 ft | 6 kts | 68° |
| 2026-05-08 07:32 | -41.32698 | 174.80943 | 17 ft | 3 kts | 86° |
| 2026-05-08 07:32 | -41.32699 | 174.80947 | 17 ft | 0 kts | 101° |
| 2026-05-08 07:33 | -41.32699 | 174.80971 | 17 ft | 8 kts | 92° |
| 2026-05-08 07:33 | -41.32705 | 174.81029 | 19 ft | 2 kts | 120° |
| 2026-05-08 07:33 | -41.32709 | 174.81032 | 18 ft | 2 kts | 146° |
| 2026-05-08 07:33 | -41.32721 | 174.81027 | 17 ft | 3 kts | 202° |
| 2026-05-08 07:34 | -41.32746 | 174.81023 | 17 ft | 3 kts | 183° |
| 2026-05-08 07:34 | -41.32750 | 174.81022 | 17 ft | 0 kts | 184° |